createdAt,value
2018-09-30T00:00:05.231Z,16.47
2018-09-30T00:02:34.130Z,16.07
2018-09-30T00:05:02.623Z,15.27
2018-09-30T00:07:31.191Z,16.30
2018-09-30T00:10:00.889Z,16.47
2018-09-30T00:12:29.591Z,15.30
2018-09-30T00:14:58.183Z,15.27
2018-09-30T00:17:26.647Z,15.90
2018-09-30T00:19:55.221Z,14.43
2018-09-30T00:22:23.643Z,15.83
2018-09-30T00:24:57.491Z,15.37
2018-09-30T00:27:26.024Z,15.53
2018-09-30T00:29:54.432Z,16.43
2018-09-30T00:32:23.044Z,15.27
2018-09-30T00:34:51.419Z,15.23
2018-09-30T00:37:19.969Z,15.93
2018-09-30T00:39:48.368Z,16.90
2018-09-30T00:42:16.586Z,17.33
2018-09-30T00:44:45.214Z,15.70
2018-09-30T00:47:13.682Z,15.97
2018-09-30T00:49:42.179Z,17.17
2018-09-30T00:52:10.504Z,15.63
2018-09-30T00:54:39.008Z,13.70
2018-09-30T00:57:07.384Z,15.13
2018-09-30T00:59:35.759Z,15.97
2018-09-30T01:02:04.048Z,15.60
2018-09-30T01:04:32.467Z,15.00
2018-09-30T01:07:00.854Z,15.90
2018-09-30T01:09:29.247Z,15.50
2018-09-30T01:11:57.691Z,15.53
2018-09-30T01:14:26.181Z,15.63
2018-09-30T01:16:54.443Z,17.03
2018-09-30T01:19:22.647Z,16.70
2018-09-30T01:21:50.879Z,16.83
2018-09-30T01:24:19.030Z,16.53
2018-09-30T01:26:47.145Z,15.90
2018-09-30T01:29:15.359Z,16.07
2018-09-30T01:31:43.337Z,16.47
2018-09-30T01:34:11.402Z,16.43
2018-09-30T01:36:39.671Z,16.10
2018-09-30T01:39:07.825Z,15.90
2018-09-30T01:41:36.044Z,15.13
2018-09-30T01:44:04.242Z,14.70
2018-09-30T01:46:32.438Z,17.83
2018-09-30T01:49:00.868Z,15.77
2018-09-30T01:51:28.932Z,16.07
2018-09-30T01:53:57.010Z,15.60
2018-09-30T01:56:25.009Z,17.03
2018-09-30T01:58:53.274Z,14.33
2018-09-30T02:01:21.397Z,14.27
2018-09-30T02:03:49.482Z,14.13
2018-09-30T02:06:17.553Z,14.00
2018-09-30T02:08:45.825Z,13.63
2018-09-30T02:11:14.725Z,14.07
2018-09-30T02:13:42.869Z,14.17
2018-09-30T02:16:10.926Z,13.73
2018-09-30T02:18:40.182Z,13.20
2018-09-30T02:21:08.290Z,13.30
2018-09-30T02:23:36.266Z,14.33
2018-09-30T02:26:04.322Z,13.63
2018-09-30T02:28:32.601Z,12.97
2018-09-30T02:31:00.671Z,12.03
2018-09-30T02:33:28.749Z,12.10
2018-09-30T02:35:56.979Z,11.80
2018-09-30T02:38:25.261Z,12.87
2018-09-30T02:40:53.392Z,12.40
2018-09-30T02:43:21.521Z,12.57
2018-09-30T02:45:49.888Z,13.77
2018-09-30T02:48:18.043Z,11.80
2018-09-30T02:50:46.139Z,11.23
2018-09-30T02:53:14.275Z,11.20
2018-09-30T02:55:42.287Z,11.10
2018-09-30T02:58:10.802Z,11.40
2018-09-30T03:00:39.002Z,12.20
2018-09-30T03:03:07.213Z,11.80
2018-09-30T03:05:35.429Z,11.43
2018-09-30T03:08:09.000Z,11.03
2018-09-30T03:10:39.073Z,11.90
2018-09-30T03:13:07.779Z,10.93
2018-09-30T03:15:35.860Z,10.63
2018-09-30T03:18:03.930Z,10.43
2018-09-30T03:20:32.152Z,11.10
2018-09-30T03:23:00.249Z,10.70
2018-09-30T03:25:28.298Z,11.20
2018-09-30T03:27:56.406Z,10.43
2018-09-30T03:30:24.629Z,10.97
2018-09-30T03:32:52.679Z,11.53
2018-09-30T03:35:22.510Z,10.80
2018-09-30T03:37:50.557Z,10.73
2018-09-30T03:40:18.606Z,10.23
2018-09-30T03:42:46.864Z,9.53
2018-09-30T03:45:15.053Z,10.57
2018-09-30T03:47:43.272Z,9.73
2018-09-30T03:50:11.461Z,10.00
2018-09-30T03:52:39.601Z,10.23
2018-09-30T03:55:07.856Z,9.67
2018-09-30T03:57:35.978Z,10.40
2018-09-30T04:00:04.153Z,9.60
2018-09-30T04:02:32.251Z,10.57
2018-09-30T04:05:00.333Z,9.07
2018-09-30T04:07:28.498Z,9.47
2018-09-30T04:09:56.627Z,9.90
2018-09-30T04:12:24.880Z,9.13
2018-09-30T04:14:53.065Z,9.23
2018-09-30T04:17:21.445Z,9.00
2018-09-30T04:19:49.518Z,9.30
2018-09-30T04:22:17.685Z,8.67
2018-09-30T04:24:45.895Z,7.87
2018-09-30T04:27:14.039Z,8.73
2018-09-30T04:29:42.404Z,8.27
2018-09-30T04:32:10.681Z,7.90
2018-09-30T04:34:39.169Z,7.83
2018-09-30T04:37:07.365Z,9.07
2018-09-30T04:39:35.511Z,8.87
2018-09-30T04:42:03.606Z,8.37
2018-09-30T04:44:31.721Z,7.83
2018-09-30T04:47:00.091Z,8.50
2018-09-30T04:49:28.232Z,8.43
2018-09-30T04:51:56.583Z,9.50
2018-09-30T04:54:24.865Z,8.10
2018-09-30T04:56:54.106Z,9.37
2018-09-30T04:59:22.846Z,8.33
2018-09-30T05:01:55.540Z,9.27
2018-09-30T05:04:24.458Z,9.77
2018-09-30T05:06:53.045Z,8.37
2018-09-30T05:09:21.341Z,8.87
2018-09-30T05:11:49.490Z,8.83
2018-09-30T05:14:18.061Z,8.53
2018-09-30T05:16:47.397Z,9.07
2018-09-30T05:19:16.113Z,8.60
2018-09-30T05:21:44.328Z,10.07
2018-09-30T05:24:12.702Z,12.80
2018-09-30T05:26:41.988Z,14.47
2018-09-30T05:29:10.926Z,8.17
2018-09-30T05:31:39.707Z,9.10
2018-09-30T05:34:08.165Z,11.33
2018-09-30T05:36:36.608Z,8.87
2018-09-30T05:39:07.180Z,9.63
2018-09-30T05:41:35.733Z,9.33
2018-09-30T05:44:04.451Z,8.83
2018-09-30T05:46:32.983Z,9.07
2018-09-30T05:49:01.853Z,9.20
2018-09-30T05:51:31.735Z,35.77
2018-09-30T05:54:00.522Z,16.67
2018-09-30T05:56:29.526Z,11.53
2018-09-30T05:58:58.201Z,9.50
2018-09-30T06:01:26.923Z,9.67
2018-09-30T06:03:56.665Z,9.90
2018-09-30T06:06:25.248Z,10.57
2018-09-30T06:08:53.754Z,9.37
2018-09-30T06:11:22.359Z,11.77
2018-09-30T06:13:51.249Z,9.50
2018-09-30T06:16:20.359Z,10.13
2018-09-30T06:18:49.510Z,9.47
2018-09-30T06:21:18.174Z,10.23
2018-09-30T06:23:47.443Z,9.10
2018-09-30T06:26:16.253Z,9.67
2018-09-30T06:28:46.855Z,9.77
2018-09-30T06:31:16.062Z,9.80
2018-09-30T06:33:45.857Z,9.60
2018-09-30T06:36:14.650Z,10.00
2018-09-30T06:38:43.773Z,9.00
2018-09-30T06:41:12.587Z,10.40
2018-09-30T06:43:41.727Z,9.40
2018-09-30T06:46:10.317Z,10.80
2018-09-30T06:48:39.239Z,10.63
2018-09-30T06:51:08.340Z,8.83
2018-09-30T06:53:37.343Z,8.87
2018-09-30T06:56:06.602Z,10.90
2018-09-30T06:58:35.733Z,11.23
2018-09-30T07:01:04.896Z,8.67
2018-09-30T07:03:33.834Z,10.37
2018-09-30T07:06:03.040Z,11.50
2018-09-30T07:08:32.381Z,10.07
2018-09-30T07:11:02.428Z,11.43
2018-09-30T07:13:32.282Z,11.07
2018-09-30T07:16:01.356Z,12.33
2018-09-30T07:18:30.531Z,11.83
2018-09-30T07:20:59.584Z,11.23
2018-09-30T07:23:28.246Z,12.50
2018-09-30T07:25:58.014Z,10.93
2018-09-30T07:28:28.312Z,12.20
2018-09-30T07:30:57.260Z,12.97
2018-09-30T07:33:26.068Z,14.00
2018-09-30T07:35:55.968Z,12.93
2018-09-30T07:38:24.651Z,11.10
2018-09-30T07:40:53.921Z,11.63
2018-09-30T07:43:23.387Z,12.50
2018-09-30T07:45:52.633Z,13.60
2018-09-30T07:48:21.305Z,12.00
2018-09-30T07:50:49.854Z,11.67
2018-09-30T07:53:18.665Z,12.90
2018-09-30T07:55:48.153Z,12.53
2018-09-30T07:58:17.541Z,12.47
2018-09-30T08:00:46.071Z,11.83
2018-09-30T08:03:14.461Z,11.70
2018-09-30T08:05:43.300Z,11.27
2018-09-30T08:08:12.077Z,10.77
2018-09-30T08:10:41.288Z,11.43
2018-09-30T08:13:10.708Z,10.97
2018-09-30T08:15:41.133Z,11.07
2018-09-30T08:18:11.854Z,11.63
2018-09-30T08:20:41.641Z,10.97
2018-09-30T08:23:10.807Z,11.60
2018-09-30T08:25:40.219Z,11.83
2018-09-30T08:28:09.704Z,12.10
2018-09-30T08:30:39.210Z,12.03
2018-09-30T08:33:08.494Z,11.37
2018-09-30T08:35:37.705Z,11.07
2018-09-30T08:38:12.790Z,11.37
2018-09-30T08:40:47.821Z,10.73
2018-09-30T08:43:16.964Z,10.97
2018-09-30T08:45:48.847Z,11.63
2018-09-30T08:48:18.041Z,11.07
2018-09-30T08:50:46.963Z,10.07
2018-09-30T08:53:16.136Z,11.17
2018-09-30T08:55:45.196Z,11.73
2018-09-30T08:58:14.192Z,10.93
2018-09-30T09:00:43.845Z,11.30
2018-09-30T09:03:14.963Z,11.77
2018-09-30T09:05:49.650Z,11.03
2018-09-30T09:08:20.433Z,11.10
2018-09-30T09:10:52.978Z,10.67
2018-09-30T09:13:24.145Z,10.40
2018-09-30T09:15:55.065Z,10.67
2018-09-30T09:18:23.882Z,9.77
2018-09-30T09:20:52.452Z,9.67
2018-09-30T09:23:21.063Z,9.97
2018-09-30T09:25:49.560Z,10.27
2018-09-30T09:28:18.207Z,15.03
2018-09-30T09:30:48.127Z,11.50
2018-09-30T09:33:18.678Z,13.53
2018-09-30T09:35:48.794Z,28.93
2018-09-30T09:38:18.820Z,12.40
2018-09-30T09:40:47.451Z,74.50
2018-09-30T09:43:16.237Z,22.50
2018-09-30T09:45:46.324Z,29.77
2018-09-30T09:48:15.335Z,21.63
2018-09-30T09:50:49.114Z,16.43
2018-09-30T09:53:18.596Z,14.67
2018-09-30T09:55:47.169Z,30.40
2018-09-30T09:58:15.742Z,21.10
2018-09-30T10:00:45.907Z,10.47
2018-09-30T10:03:15.743Z,9.73
2018-09-30T10:05:44.613Z,9.77
2018-09-30T10:08:15.230Z,9.30
2018-09-30T10:10:44.072Z,9.43
2018-09-30T10:15:59.300Z,9.43
2018-09-30T10:18:28.339Z,8.97
2018-09-30T10:20:56.737Z,9.97
2018-09-30T10:23:25.459Z,8.93
2018-09-30T10:25:54.102Z,8.73
2018-09-30T10:28:22.432Z,8.87
2018-09-30T10:30:50.927Z,9.23
2018-09-30T10:33:19.575Z,9.63
2018-09-30T10:35:48.072Z,9.23
2018-09-30T10:38:16.868Z,9.40
2018-09-30T10:40:45.267Z,8.23
2018-09-30T10:43:14.615Z,8.97
2018-09-30T10:45:43.313Z,8.10
2018-09-30T10:48:13.535Z,8.80
2018-09-30T10:50:44.327Z,8.30
2018-09-30T10:53:17.990Z,7.97
2018-09-30T10:55:47.127Z,7.93
2018-09-30T10:58:19.385Z,8.10
2018-09-30T11:00:51.522Z,6.87
2018-09-30T11:03:22.024Z,5.27
2018-09-30T11:05:52.513Z,6.00
2018-09-30T11:08:26.619Z,5.67
2018-09-30T11:11:02.230Z,5.33
2018-09-30T11:13:37.165Z,6.20
2018-09-30T11:16:07.040Z,6.47
2018-09-30T11:18:37.616Z,6.20
2018-09-30T11:21:07.179Z,6.13
2018-09-30T11:23:35.670Z,6.63
2018-09-30T11:26:04.628Z,6.07
2018-09-30T11:28:33.795Z,5.37
2018-09-30T11:31:02.581Z,5.60
2018-09-30T11:33:31.592Z,5.87
2018-09-30T11:35:59.929Z,5.43
2018-09-30T11:38:28.605Z,5.30
2018-09-30T11:40:58.805Z,5.17
2018-09-30T11:43:27.525Z,5.33
2018-09-30T11:45:56.312Z,5.03
2018-09-30T11:48:24.945Z,5.63
2018-09-30T11:50:53.739Z,4.97
2018-09-30T11:53:22.284Z,4.90
2018-09-30T11:55:51.320Z,5.40
2018-09-30T11:58:20.006Z,3.80
2018-09-30T12:00:50.275Z,4.83
2018-09-30T12:03:21.120Z,4.03
2018-09-30T12:05:50.901Z,5.00
2018-09-30T12:08:19.952Z,4.63
2018-09-30T12:10:49.593Z,4.03
2018-09-30T12:13:18.631Z,4.50
2018-09-30T12:15:48.290Z,4.27
2018-09-30T12:18:17.074Z,3.90
2018-09-30T12:20:45.890Z,3.90
2018-09-30T12:23:14.939Z,4.37
2018-09-30T12:25:43.649Z,4.47
2018-09-30T12:28:12.147Z,5.07
2018-09-30T12:30:41.620Z,5.43
2018-09-30T12:33:10.448Z,4.57
2018-09-30T12:35:39.389Z,4.23
2018-09-30T12:38:08.969Z,3.53
2018-09-30T12:40:37.662Z,3.87
2018-09-30T12:43:06.671Z,3.07
2018-09-30T12:45:36.354Z,4.20
2018-09-30T12:48:06.508Z,4.30
2018-09-30T12:50:37.218Z,5.23
2018-09-30T12:53:09.142Z,3.80
2018-09-30T12:55:41.242Z,3.30
2018-09-30T12:58:12.684Z,3.83
2018-09-30T13:00:42.442Z,3.60
2018-09-30T13:03:11.101Z,4.00
2018-09-30T13:05:40.701Z,4.03
2018-09-30T13:08:12.130Z,3.10
2018-09-30T13:10:57.295Z,3.73
2018-09-30T13:13:26.725Z,3.37
2018-09-30T13:15:56.180Z,3.03
2018-09-30T13:18:27.374Z,2.97
2018-09-30T13:20:56.922Z,4.10
2018-09-30T13:23:26.939Z,3.47
2018-09-30T13:25:55.817Z,3.27
2018-09-30T13:28:25.715Z,4.63
2018-09-30T13:30:57.353Z,3.30
2018-09-30T13:33:29.297Z,3.30
2018-09-30T13:36:00.508Z,3.10
2018-09-30T13:38:31.915Z,2.93
2018-09-30T13:41:03.275Z,3.47
2018-09-30T13:43:35.054Z,2.80
2018-09-30T13:46:03.625Z,3.20
2018-09-30T13:48:31.776Z,3.30
2018-09-30T13:51:00.228Z,3.63
2018-09-30T13:53:28.689Z,3.30
2018-09-30T13:55:56.872Z,3.43
2018-09-30T13:58:24.995Z,3.30
2018-09-30T14:00:54.827Z,3.93
2018-09-30T14:03:23.148Z,4.57
2018-09-30T14:05:51.474Z,3.30
2018-09-30T14:08:19.802Z,3.50
2018-09-30T14:10:48.147Z,2.80
2018-09-30T14:13:16.342Z,3.27
2018-09-30T14:15:44.512Z,2.73
2018-09-30T14:18:12.788Z,2.63
2018-09-30T14:20:40.921Z,2.30
2018-09-30T14:23:09.029Z,2.93
2018-09-30T14:25:37.185Z,2.40
2018-09-30T14:28:05.219Z,3.03
2018-09-30T14:30:33.568Z,2.30
2018-09-30T14:33:01.637Z,2.90
2018-09-30T14:35:30.022Z,2.53
2018-09-30T14:37:58.351Z,2.60
2018-09-30T14:40:26.858Z,2.00
2018-09-30T14:42:55.461Z,2.40
2018-09-30T14:45:23.775Z,2.20
2018-09-30T14:47:52.001Z,2.37
2018-09-30T14:50:20.331Z,1.90
2018-09-30T14:52:48.540Z,2.33
2018-09-30T14:55:16.890Z,1.90
2018-09-30T14:57:45.251Z,2.33
2018-09-30T15:00:13.600Z,1.80
2018-09-30T15:05:39.964Z,2.07
2018-09-30T15:08:08.278Z,2.40
2018-09-30T15:10:36.507Z,1.67
2018-09-30T15:13:04.826Z,1.80
2018-09-30T15:15:33.141Z,1.87
2018-09-30T15:18:01.647Z,1.90
2018-09-30T15:20:29.803Z,2.30
2018-09-30T15:22:57.955Z,1.53
2018-09-30T15:25:26.088Z,1.90
2018-09-30T15:27:54.638Z,2.07
2018-09-30T15:30:22.744Z,1.50
2018-09-30T15:32:50.956Z,1.93
2018-09-30T15:35:19.136Z,1.90
2018-09-30T15:37:47.695Z,1.70
2018-09-30T15:40:16.148Z,2.00
2018-09-30T15:42:44.567Z,1.70
2018-09-30T15:45:12.951Z,2.00
2018-09-30T15:47:41.165Z,1.70
2018-09-30T15:50:09.515Z,1.40
2018-09-30T15:52:37.804Z,1.40
2018-09-30T15:55:05.972Z,1.67
2018-09-30T15:57:34.288Z,1.20
2018-09-30T16:00:02.720Z,1.53
2018-09-30T16:02:30.992Z,1.60
2018-09-30T16:04:59.248Z,1.40
2018-09-30T16:07:27.367Z,1.53
2018-09-30T16:09:55.513Z,1.47
2018-09-30T16:12:24.832Z,1.60
2018-09-30T16:14:52.945Z,1.83
2018-09-30T16:17:21.171Z,2.13
2018-09-30T16:19:49.423Z,1.87
2018-09-30T16:22:17.733Z,1.90
2018-09-30T16:24:46.052Z,1.70
2018-09-30T16:27:14.155Z,1.63
2018-09-30T16:29:42.550Z,1.70
2018-09-30T16:32:11.045Z,1.30
2018-09-30T16:34:39.483Z,2.70
2018-09-30T16:37:08.719Z,6.53
2018-09-30T16:39:36.774Z,7.77
2018-09-30T16:42:05.080Z,3.77
2018-09-30T16:44:33.229Z,4.53
2018-09-30T16:47:01.500Z,4.83
2018-09-30T16:49:30.233Z,4.30
2018-09-30T16:51:58.591Z,5.87
2018-09-30T16:54:26.989Z,4.70
2018-09-30T16:56:55.371Z,4.30
2018-09-30T16:59:23.838Z,4.50
2018-09-30T17:01:52.523Z,4.20
2018-09-30T17:04:20.878Z,4.90
2018-09-30T17:06:49.757Z,6.23
2018-09-30T17:09:18.607Z,6.57
2018-09-30T17:11:47.320Z,5.93
2018-09-30T17:14:18.256Z,4.70
2018-09-30T17:16:49.625Z,5.47
2018-09-30T17:19:18.057Z,5.03
2018-09-30T17:21:46.479Z,5.63
2018-09-30T17:24:14.957Z,4.50
2018-09-30T17:26:43.929Z,5.57
2018-09-30T17:29:13.551Z,5.43
2018-09-30T17:31:42.189Z,5.07
2018-09-30T17:34:10.937Z,5.30
2018-09-30T17:36:39.408Z,4.63
2018-09-30T17:39:08.908Z,4.83
2018-09-30T17:41:37.457Z,5.60
2018-09-30T17:44:06.643Z,4.90
2018-09-30T17:46:38.622Z,4.97
2018-09-30T17:49:08.813Z,4.97
2018-09-30T17:51:37.275Z,5.37
2018-09-30T17:54:05.979Z,4.90
2018-09-30T17:56:35.644Z,5.57
2018-09-30T17:59:04.794Z,5.37
2018-09-30T18:01:35.077Z,4.57
2018-09-30T18:04:04.022Z,4.40
2018-09-30T18:06:32.221Z,5.87
2018-09-30T18:09:06.880Z,5.60
2018-09-30T18:11:35.185Z,6.40
2018-09-30T18:14:03.548Z,6.13
2018-09-30T18:16:31.890Z,5.90
2018-09-30T18:19:00.124Z,5.80
2018-09-30T18:21:28.928Z,5.80
2018-09-30T18:23:57.707Z,5.27
2018-09-30T18:26:26.376Z,6.27
2018-09-30T18:28:54.599Z,5.60
2018-09-30T18:31:23.130Z,5.73
2018-09-30T18:33:51.523Z,6.37
2018-09-30T18:36:19.730Z,5.80
2018-09-30T18:38:48.288Z,6.33
2018-09-30T18:41:16.567Z,5.20
2018-09-30T18:43:45.011Z,5.23
2018-09-30T18:46:13.651Z,4.83
2018-09-30T18:48:42.104Z,5.47
2018-09-30T18:51:11.126Z,5.60
2018-09-30T18:53:39.599Z,5.57
2018-09-30T18:56:08.163Z,4.87
2018-09-30T18:58:37.677Z,5.40
2018-09-30T19:01:06.597Z,5.30
2018-09-30T19:03:34.918Z,5.53
2018-09-30T19:06:03.179Z,5.83
2018-09-30T19:08:31.661Z,6.50
2018-09-30T19:11:00.486Z,5.10
2018-09-30T19:13:29.610Z,5.73
2018-09-30T19:15:59.738Z,5.77
2018-09-30T19:18:28.184Z,5.97
2018-09-30T19:20:56.955Z,7.17
2018-09-30T19:23:25.510Z,6.70
2018-09-30T19:25:54.287Z,5.30
2018-09-30T19:28:23.268Z,5.73
2018-09-30T19:30:53.069Z,5.40
2018-09-30T19:33:21.948Z,5.07
2018-09-30T19:35:51.616Z,6.23
2018-09-30T19:38:20.205Z,5.57
2018-09-30T19:40:51.791Z,6.23
2018-09-30T19:43:21.636Z,5.27
2018-09-30T19:45:49.998Z,4.87
2018-09-30T19:48:19.110Z,4.93
2018-09-30T19:50:47.443Z,5.40
2018-09-30T19:53:16.203Z,5.10
2018-09-30T19:55:44.672Z,5.33
2018-09-30T19:58:13.124Z,5.03
2018-09-30T20:00:41.832Z,4.07
2018-09-30T20:03:10.752Z,5.60
2018-09-30T20:05:39.181Z,4.07
2018-09-30T20:08:07.434Z,4.33
2018-09-30T20:10:35.855Z,4.70
2018-09-30T20:13:04.482Z,5.70
2018-09-30T20:15:32.930Z,4.93
2018-09-30T20:18:01.256Z,4.90
2018-09-30T20:20:30.972Z,5.40
2018-09-30T20:23:00.912Z,5.33
2018-09-30T20:25:31.805Z,5.53
2018-09-30T20:28:00.427Z,4.67
2018-09-30T20:30:31.321Z,4.03
2018-09-30T20:33:00.669Z,4.90
2018-09-30T20:35:29.014Z,4.70
2018-09-30T20:37:57.956Z,5.27
2018-09-30T20:40:27.171Z,4.50
2018-09-30T20:42:55.487Z,4.77
2018-09-30T20:45:24.685Z,4.83
2018-09-30T20:47:52.989Z,4.70
2018-09-30T20:50:21.158Z,5.10
2018-09-30T20:52:49.468Z,4.63
2018-09-30T20:55:17.705Z,4.67
2018-09-30T20:57:46.014Z,4.67
2018-09-30T21:00:14.298Z,4.73
2018-09-30T21:02:42.906Z,4.73
2018-09-30T21:05:25.184Z,4.77
2018-09-30T21:07:53.798Z,4.63
2018-09-30T21:10:22.077Z,4.83
2018-09-30T21:12:50.409Z,4.70
2018-09-30T21:15:18.693Z,4.70
2018-09-30T21:17:46.972Z,5.70
2018-09-30T21:20:15.319Z,5.70
2018-09-30T21:22:43.606Z,4.37
2018-09-30T21:25:12.124Z,4.77
2018-09-30T21:27:40.639Z,5.07
2018-09-30T21:30:09.919Z,4.60
2018-09-30T21:32:38.991Z,4.53
2018-09-30T21:35:08.746Z,4.53
2018-09-30T21:37:37.767Z,4.93
2018-09-30T21:40:06.369Z,4.87
2018-09-30T21:42:34.539Z,4.40
2018-09-30T21:45:02.873Z,4.30
2018-09-30T21:47:31.465Z,4.70
2018-09-30T21:50:00.012Z,4.57
2018-09-30T21:52:28.501Z,5.00
2018-09-30T21:54:56.808Z,5.10
2018-09-30T21:57:25.046Z,4.53
2018-09-30T21:59:53.155Z,4.70
2018-09-30T22:02:21.224Z,4.97
2018-09-30T22:04:49.320Z,4.50
2018-09-30T22:07:17.414Z,4.70
2018-09-30T22:09:45.676Z,4.33
2018-09-30T22:12:13.868Z,4.00
2018-09-30T22:14:41.957Z,3.83
2018-09-30T22:17:10.162Z,4.47
2018-09-30T22:19:38.326Z,4.10
2018-09-30T22:22:06.917Z,3.90
2018-09-30T22:24:35.008Z,3.77
2018-09-30T22:27:03.239Z,4.00
2018-09-30T22:29:31.508Z,4.07
2018-09-30T22:31:59.589Z,3.83
2018-09-30T22:34:27.773Z,3.80
2018-09-30T22:36:56.051Z,3.93
2018-09-30T22:39:24.204Z,4.27
2018-09-30T22:41:52.378Z,3.87
2018-09-30T22:44:20.530Z,4.07
2018-09-30T22:46:48.688Z,4.33
2018-09-30T22:49:16.778Z,3.60
2018-09-30T22:51:44.865Z,3.80
2018-09-30T22:54:12.915Z,3.63
2018-09-30T22:56:41.018Z,3.87
2018-09-30T22:59:09.146Z,4.17
2018-09-30T23:01:37.260Z,4.10
2018-09-30T23:04:11.887Z,3.43
2018-09-30T23:06:39.998Z,3.27
2018-09-30T23:09:08.548Z,3.20
2018-09-30T23:11:36.920Z,3.30
2018-09-30T23:14:04.963Z,3.07
2018-09-30T23:16:33.166Z,4.43
2018-09-30T23:19:01.260Z,3.37
2018-09-30T23:21:29.494Z,3.20
2018-09-30T23:23:57.771Z,2.63
2018-09-30T23:26:25.940Z,3.00
2018-09-30T23:28:54.126Z,2.83
2018-09-30T23:31:22.455Z,2.97
2018-09-30T23:33:50.508Z,3.20
2018-09-30T23:36:18.730Z,3.20
2018-09-30T23:38:46.920Z,2.90
2018-09-30T23:41:15.689Z,2.73
2018-09-30T23:43:43.926Z,2.90
2018-09-30T23:46:12.041Z,2.93
2018-09-30T23:48:40.122Z,2.90
2018-09-30T23:51:08.269Z,2.47
2018-09-30T23:53:36.346Z,2.80
2018-09-30T23:56:04.461Z,2.83
2018-09-30T23:58:32.486Z,2.73
